Terminal Aerodrome Forecast
Issued by NWS Charleston, WV

Current Version | Previous Version | Text Only | Print | Product List | Glossary Off
Versions: 1 2 3 4 5 6 7 8 9 10 11 12 13 14 15 16 17 18 19 20 21 22 23 24

000
FTUS41 KRLX 020200 AAA
TAFEKN
TAF AMD
KEKN 020203Z 0202/0224 23006KT 6SM -RA BR BKN018 OVC025
      TEMPO 0203/0206 3SM -RA BR BKN009
     FM020600 27006KT 4SM -RA BR OVC009
     FM020900 28009KT 5SM -SN BR OVC010
     FM021300 29008KT P6SM -SN BKN015
     FM021400 28007KT P6SM BKN025
     FM021800 31007KT P6SM SCT015=

USA.gov is the U.S. government's official web portal to all federal, state and local government web resources and services.